Time;durP1;ratioP1;P1;durP2;ratioP2;P2;SDS_P1;SDS_P2;PMS_P1;PMS_P2;Temp;Humidity;BMP_temperature;BMP_pressure;BME280_temperature;BME280_humidity;BME280_pressure;Samples;Min_cycle;Max_cycle;Signal;HPM_P1;HPM_P2
2023/04/16 00:00:47;;;;;;;20.27;11.68;;;5.90;99.90;;;;;;5028190;28;20087;-83
2023/04/16 00:03:13;;;;;;;20.42;11.18;;;5.90;99.90;;;;;;5031590;28;20039;-83
2023/04/16 00:05:39;;;;;;;24.10;11.32;;;5.90;99.90;;;;;;5031788;28;20026;-83
2023/04/16 00:08:04;;;;;;;21.48;11.13;;;5.90;99.90;;;;;;5031426;28;20036;-84
2023/04/16 00:10:30;;;;;;;21.70;11.57;;;5.90;99.90;;;;;;5014899;28;20065;-83
2023/04/16 00:12:56;;;;;;;21.52;11.43;;;5.90;99.90;;;;;;5033229;28;20030;-83
2023/04/16 00:15:22;;;;;;;24.05;12.63;;;5.90;99.90;;;;;;5042538;28;20109;-83
2023/04/16 00:17:47;;;;;;;20.60;12.43;;;5.90;99.90;;;;;;5035047;28;20663;-83
2023/04/16 00:20:13;;;;;;;27.00;12.98;;;5.90;99.90;;;;;;5034681;28;20046;-83
2023/04/16 00:22:40;;;;;;;34.90;16.55;;;5.90;99.90;;;;;;5035880;28;20029;-83
2023/04/16 00:25:06;;;;;;;34.97;16.90;;;5.90;99.90;;;;;;5034560;28;20112;-83
2023/04/16 00:27:31;;;;;;;31.77;17.58;;;5.90;99.90;;;;;;5018524;28;20125;-83
2023/04/16 00:29:57;;;;;;;38.85;18.42;;;5.80;99.90;;;;;;5035448;28;20548;-83
2023/04/16 00:32:23;;;;;;;34.47;18.02;;;5.90;99.90;;;;;;5018558;28;20112;-83
2023/04/16 00:34:49;;;;;;;38.15;18.00;;;5.90;99.90;;;;;;5035285;28;20388;-83
2023/04/16 00:37:15;;;;;;;42.28;19.23;;;5.80;99.90;;;;;;5018998;28;20025;-83
2023/04/16 00:39:40;;;;;;;38.40;18.48;;;5.90;99.90;;;;;;5035284;28;20727;-83
2023/04/16 00:42:06;;;;;;;41.75;19.60;;;5.80;99.90;;;;;;5017858;28;20381;-83
2023/04/16 00:44:34;;;;;;;39.05;18.25;;;5.90;99.90;;;;;;5018333;28;20083;-84
2023/04/16 00:47:01;;;;;;;38.63;18.95;;;5.80;99.90;;;;;;5018510;28;20030;-84
2023/04/16 00:49:28;;;;;;;40.28;18.27;;;5.80;99.90;;;;;;5034410;28;20155;-83
2023/04/16 00:51:55;;;;;;;49.20;21.20;;;5.80;99.90;;;;;;5018348;28;20068;-84
2023/04/16 00:54:24;;;;;;;41.33;19.60;;;5.80;99.90;;;;;;5039086;28;20420;-83
2023/04/16 00:56:50;;;;;;;46.78;20.63;;;5.90;99.90;;;;;;5037730;28;20006;-84
2023/04/16 00:59:16;;;;;;;46.17;21.13;;;5.80;99.90;;;;;;5034616;28;20038;-84
2023/04/16 01:01:42;;;;;;;44.08;19.27;;;5.90;99.90;;;;;;5042069;28;20068;-83
2023/04/16 01:04:08;;;;;;;48.95;22.50;;;5.80;99.90;;;;;;5057944;28;20120;-83
2023/04/16 01:06:33;;;;;;;43.22;20.70;;;5.80;99.90;;;;;;5018144;28;20545;-84
2023/04/16 01:08:59;;;;;;;42.30;20.00;;;5.80;99.90;;;;;;5034604;28;20440;-83
2023/04/16 01:11:25;;;;;;;47.17;21.50;;;5.80;99.90;;;;;;5017373;28;20025;-83
2023/04/16 01:13:50;;;;;;;47.05;21.90;;;5.90;99.90;;;;;;5034443;28;20104;-83
2023/04/16 01:16:16;;;;;;;51.88;20.77;;;5.80;99.90;;;;;;5044977;28;20028;-84
2023/04/16 01:18:42;;;;;;;39.13;18.98;;;5.90;99.90;;;;;;5027331;28;20057;-83
2023/04/16 01:21:08;;;;;;;51.75;23.27;;;5.90;99.90;;;;;;5017717;28;20067;-84
2023/04/16 01:23:33;;;;;;;48.28;21.05;;;5.90;99.90;;;;;;5017593;28;20029;-83
2023/04/16 01:25:59;;;;;;;50.28;21.08;;;5.90;99.90;;;;;;5031376;28;20022;-83
2023/04/16 01:28:25;;;;;;;49.55;20.98;;;5.90;99.90;;;;;;5017749;28;20072;-83
2023/04/16 01:30:51;;;;;;;49.45;22.38;;;5.80;99.90;;;;;;5030511;28;20030;-83
2023/04/16 01:33:26;;;;;;;51.15;23.10;;;5.90;99.90;;;;;;5043186;28;20113;-83
2023/04/16 01:35:51;;;;;;;54.58;22.58;;;5.80;99.90;;;;;;5033768;28;20053;-84
2023/04/16 01:38:17;;;;;;;53.50;24.27;;;5.90;99.90;;;;;;5034178;28;20052;-84
2023/04/16 01:40:43;;;;;;;53.47;23.63;;;5.80;99.90;;;;;;5016979;28;20038;-83
2023/04/16 01:43:09;;;;;;;59.33;24.73;;;5.90;99.90;;;;;;5033836;28;20028;-84
2023/04/16 01:45:35;;;;;;;57.80;26.20;;;5.90;99.90;;;;;;5042460;28;20026;-84
2023/04/16 01:48:00;;;;;;;60.53;25.80;;;5.90;99.90;;;;;;5033901;28;20417;-83
2023/04/16 01:50:26;;;;;;;58.00;25.63;;;5.90;99.90;;;;;;5017152;28;20112;-83
2023/04/16 01:52:52;;;;;;;62.38;25.77;;;5.90;99.90;;;;;;5017311;28;20095;-84
2023/04/16 01:55:18;;;;;;;63.78;28.95;;;5.90;99.90;;;;;;5016890;28;20051;-83
2023/04/16 01:57:43;;;;;;;79.30;30.73;;;5.90;99.90;;;;;;5016957;28;20055;-83
2023/04/16 02:00:10;;;;;;;75.28;31.08;;;5.90;99.90;;;;;;5017160;28;20108;-83
2023/04/16 02:02:44;;;;;;;82.25;31.75;;;5.90;99.90;;;;;;5035235;28;20087;-83
2023/04/16 02:05:10;;;;;;;77.63;32.75;;;5.90;99.90;;;;;;5017213;28;20639;-83
2023/04/16 02:07:36;;;;;;;81.05;35.05;;;5.90;99.90;;;;;;5017286;28;20076;-83
2023/04/16 02:10:03;;;;;;;79.53;33.35;;;5.90;99.90;;;;;;5017407;28;20080;-83
2023/04/16 02:12:29;;;;;;;84.10;33.55;;;5.90;99.90;;;;;;5024205;28;20034;-83
2023/04/16 02:14:55;;;;;;;75.78;33.05;;;5.90;99.90;;;;;;5032247;28;20048;-83
2023/04/16 02:17:23;;;;;;;78.40;34.00;;;5.90;99.90;;;;;;5042174;28;20021;-83
2023/04/16 02:19:50;;;;;;;74.80;32.10;;;5.90;99.90;;;;;;5033247;28;20028;-83
2023/04/16 02:22:16;;;;;;;85.45;33.85;;;5.90;99.90;;;;;;5016451;28;20021;-84
2023/04/16 02:24:42;;;;;;;88.97;34.40;;;5.90;99.90;;;;;;5016319;28;20032;-83
2023/04/16 02:27:09;;;;;;;79.60;34.28;;;5.90;99.90;;;;;;5016562;28;20396;-83
2023/04/16 02:29:35;;;;;;;88.28;35.58;;;5.90;99.90;;;;;;5037661;28;20036;-83
2023/04/16 02:35:55;;;;;;;87.13;35.10;;;5.90;99.90;;;;;;5031665;28;20419;-84
2023/04/16 02:38:21;;;;;;;79.95;34.65;;;5.80;99.90;;;;;;5032244;28;20056;-83
2023/04/16 02:40:46;;;;;;;89.10;35.85;;;5.90;99.90;;;;;;5015637;28;20116;-83
2023/04/16 02:43:12;;;;;;;89.90;37.03;;;5.90;99.90;;;;;;5032151;28;20025;-83
2023/04/16 02:45:38;;;;;;;93.95;36.55;;;5.90;99.90;;;;;;5016267;28;20025;-83
2023/04/16 02:48:06;;;;;;;91.78;39.47;;;5.80;99.90;;;;;;5015878;28;20061;-83
2023/04/16 02:50:31;;;;;;;92.57;37.05;;;5.90;99.90;;;;;;5026165;28;20029;-83
2023/04/16 02:52:57;;;;;;;104.18;39.83;;;5.90;99.90;;;;;;5029294;28;20032;-83
2023/04/16 02:55:23;;;;;;;96.28;40.05;;;5.90;99.90;;;;;;5044329;28;20056;-83
2023/04/16 02:57:48;;;;;;;99.97;39.10;;;5.80;99.90;;;;;;5039462;28;20385;-84
2023/04/16 03:00:14;;;;;;;108.53;41.67;;;5.90;99.90;;;;;;5029566;28;20053;-84
2023/04/16 03:02:41;;;;;;;94.35;38.72;;;5.90;99.90;;;;;;5013484;28;20095;-84
2023/04/16 03:05:07;;;;;;;100.75;40.40;;;5.90;99.90;;;;;;5028533;28;20072;-84
2023/04/16 03:07:34;;;;;;;127.00;44.53;;;5.90;99.90;;;;;;5016329;28;20485;-84
2023/04/16 03:09:59;;;;;;;118.38;43.35;;;5.80;99.90;;;;;;5032826;28;20029;-84
2023/04/16 03:12:25;;;;;;;120.05;43.22;;;5.90;99.90;;;;;;5015866;28;20389;-84
2023/04/16 03:14:51;;;;;;;111.93;44.42;;;5.90;99.90;;;;;;5032510;28;20018;-83
2023/04/16 03:17:17;;;;;;;115.20;41.80;;;5.90;99.90;;;;;;5039792;28;20029;-83
2023/04/16 03:19:42;;;;;;;121.30;44.75;;;5.90;99.90;;;;;;5016036;28;20416;-83
2023/04/16 03:22:08;;;;;;;122.50;44.78;;;5.90;99.90;;;;;;5015582;28;20714;-83
2023/04/16 03:24:34;;;;;;;120.57;44.55;;;5.90;99.90;;;;;;5015601;28;20033;-83
2023/04/16 03:27:01;;;;;;;114.72;44.85;;;5.90;99.90;;;;;;5030479;28;20029;-84
2023/04/16 03:29:27;;;;;;;115.03;46.33;;;5.90;99.90;;;;;;5031438;28;20022;-84
2023/04/16 03:31:54;;;;;;;118.38;44.83;;;5.90;99.90;;;;;;5015724;28;20477;-84
2023/04/16 03:34:21;;;;;;;119.93;45.13;;;5.90;99.90;;;;;;5031952;28;20026;-83
2023/04/16 03:36:47;;;;;;;126.22;45.40;;;5.90;99.90;;;;;;5015485;28;20113;-83
2023/04/16 03:39:13;;;;;;;120.07;47.35;;;5.90;99.90;;;;;;5031576;28;20022;-83
2023/04/16 03:41:38;;;;;;;114.10;43.33;;;5.90;99.90;;;;;;5015686;28;20056;-84
2023/04/16 03:44:04;;;;;;;115.55;44.75;;;5.90;99.90;;;;;;5031762;28;20481;-83
2023/04/16 03:46:31;;;;;;;118.47;45.17;;;5.90;99.90;;;;;;5016574;28;20025;-82
2023/04/16 03:49:07;;;;;;;123.07;47.45;;;5.90;99.90;;;;;;5035095;28;20017;-83
2023/04/16 03:51:32;;;;;;;114.13;45.30;;;5.90;99.90;;;;;;5019018;28;20029;-84
2023/04/16 03:53:58;;;;;;;119.82;45.33;;;5.80;99.90;;;;;;5035693;28;20021;-83
2023/04/16 03:56:25;;;;;;;110.78;43.63;;;5.90;99.90;;;;;;5019353;28;20026;-84
2023/04/16 03:58:52;;;;;;;124.60;45.00;;;5.90;99.90;;;;;;5019532;28;20529;-84
2023/04/16 04:01:18;;;;;;;122.82;43.85;;;5.90;99.90;;;;;;5019162;28;20106;-84
2023/04/16 04:03:44;;;;;;;118.88;45.42;;;5.90;99.90;;;;;;5019126;28;20040;-83
2023/04/16 04:06:11;;;;;;;118.55;46.22;;;5.90;99.90;;;;;;5019440;28;20030;-83
2023/04/16 04:08:37;;;;;;;128.55;48.20;;;5.80;99.90;;;;;;5019216;28;20112;-84
2023/04/16 04:11:04;;;;;;;130.20;47.35;;;5.90;99.90;;;;;;5019533;28;20036;-84
2023/04/16 04:13:31;;;;;;;111.10;44.13;;;5.90;99.90;;;;;;5019327;28;20022;-84
2023/04/16 04:15:57;;;;;;;118.97;44.05;;;5.90;99.90;;;;;;5019241;28;20025;-84
2023/04/16 04:18:23;;;;;;;117.63;46.80;;;5.90;99.90;;;;;;5035740;28;20055;-84
2023/04/16 04:20:49;;;;;;;114.68;45.50;;;5.90;99.90;;;;;;5042424;28;20108;-84
2023/04/16 04:23:17;;;;;;;111.32;44.40;;;5.90;99.90;;;;;;5037246;28;20033;-84
2023/04/16 04:25:44;;;;;;;119.95;46.17;;;5.90;99.90;;;;;;5019063;28;20420;-83
2023/04/16 04:28:11;;;;;;;125.22;44.13;;;5.90;99.90;;;;;;5034752;28;20036;-85
2023/04/16 04:30:37;;;;;;;121.88;44.40;;;5.90;99.90;;;;;;5018434;28;20480;-83
2023/04/16 04:33:05;;;;;;;109.95;41.72;;;5.90;99.90;;;;;;5030237;28;20029;-86
2023/04/16 04:35:32;;;;;;;118.50;43.70;;;5.90;99.90;;;;;;5019870;28;20041;-86
2023/04/16 04:38:02;;;;;;;115.15;42.72;;;5.90;99.90;;;;;;5043558;28;20075;-87
2023/04/16 04:40:28;;;;;;;119.93;43.55;;;5.90;99.90;;;;;;5036101;28;20025;-87
2023/04/16 04:42:53;;;;;;;103.05;40.65;;;5.90;99.90;;;;;;5019749;28;20473;-86
2023/04/16 04:45:24;;;;;;;99.63;40.60;;;5.90;99.90;;;;;;5019570;28;20037;-87
2023/04/16 04:47:53;;;;;;;111.45;42.38;;;5.90;99.90;;;;;;5019521;28;20021;-87
2023/04/16 04:50:21;;;;;;;111.30;41.17;;;5.90;99.90;;;;;;5035862;28;20083;-87
2023/04/16 04:52:46;;;;;;;91.70;39.13;;;5.90;99.90;;;;;;5019538;28;20032;-87
2023/04/16 04:55:14;;;;;;;107.38;40.95;;;5.90;99.90;;;;;;5036037;28;20473;-86
2023/04/16 04:57:41;;;;;;;105.75;41.05;;;5.90;99.90;;;;;;5018776;28;20025;-87
2023/04/16 05:00:08;;;;;;;93.22;38.88;;;5.90;99.90;;;;;;5035402;28;20477;-87
2023/04/16 05:02:51;;;;;;;92.65;38.78;;;5.90;99.90;;;;;;5035462;28;20420;-87
2023/04/16 05:05:16;;;;;;;98.55;39.60;;;6.00;99.90;;;;;;5052581;28;20033;-86
2023/04/16 05:07:43;;;;;;;95.03;39.67;;;6.00;99.90;;;;;;5018808;28;20442;-87
2023/04/16 05:10:09;;;;;;;96.47;39.58;;;5.90;99.90;;;;;;5035742;28;20030;-87
2023/04/16 05:12:34;;;;;;;100.30;41.00;;;5.90;99.90;;;;;;5019233;28;20016;-86
2023/04/16 05:15:00;;;;;;;86.63;38.55;;;5.90;99.90;;;;;;5035702;28;20017;-87
2023/04/16 05:17:26;;;;;;;92.45;38.22;;;6.00;99.90;;;;;;5044161;28;20026;-87
2023/04/16 05:19:51;;;;;;;87.18;38.40;;;6.00;99.90;;;;;;5040441;28;20026;-87
2023/04/16 05:22:17;;;;;;;83.75;37.22;;;6.00;99.90;;;;;;5032961;28;20029;-87
2023/04/16 05:24:44;;;;;;;82.38;36.65;;;6.00;99.90;;;;;;5018913;28;20025;-87
2023/04/16 05:27:10;;;;;;;80.97;36.53;;;6.10;99.90;;;;;;5018711;28;20172;-87
2023/04/16 05:29:36;;;;;;;79.97;36.00;;;6.00;99.90;;;;;;5019196;28;20504;-87
2023/04/16 05:32:01;;;;;;;84.22;35.78;;;6.00;99.90;;;;;;5018784;28;20492;-87
2023/04/16 05:34:28;;;;;;;79.15;37.65;;;6.00;99.90;;;;;;5035406;28;20065;-87
2023/04/16 05:36:54;;;;;;;81.45;35.10;;;6.00;99.90;;;;;;5018911;28;20392;-87
2023/04/16 05:39:20;;;;;;;73.50;32.75;;;6.00;99.90;;;;;;5035457;28;20033;-87
2023/04/16 05:41:45;;;;;;;76.80;34.30;;;6.00;99.90;;;;;;5018384;28;20075;-86
2023/04/16 05:44:11;;;;;;;76.25;35.17;;;6.00;99.90;;;;;;5035299;28;20097;-87
2023/04/16 05:46:37;;;;;;;74.95;34.83;;;6.00;99.90;;;;;;5018298;28;20029;-87
2023/04/16 05:49:03;;;;;;;72.93;33.55;;;6.00;99.90;;;;;;5051611;28;20025;-87
2023/04/16 05:51:28;;;;;;;74.65;33.65;;;6.00;99.90;;;;;;5034494;28;20037;-87
2023/04/16 05:53:54;;;;;;;75.15;34.65;;;6.00;99.90;;;;;;5018040;28;20029;-87
2023/04/16 05:56:20;;;;;;;73.20;33.83;;;6.00;99.90;;;;;;5017994;28;20029;-88
2023/04/16 05:58:46;;;;;;;68.60;32.70;;;6.00;99.90;;;;;;5035091;28;20021;-87
2023/04/16 06:01:12;;;;;;;63.70;30.70;;;6.00;99.90;;;;;;5018385;28;20029;-87
2023/04/16 06:03:38;;;;;;;64.75;30.85;;;6.00;99.90;;;;;;5034241;28;20029;-88
2023/04/16 06:06:04;;;;;;;66.43;32.42;;;6.00;99.90;;;;;;5027458;28;20040;-88
2023/04/16 06:08:30;;;;;;;70.53;32.50;;;6.10;99.90;;;;;;5034025;28;20115;-87
2023/04/16 06:10:55;;;;;;;71.72;31.08;;;6.10;99.90;;;;;;5033110;28;20029;-87
2023/04/16 06:13:21;;;;;;;64.03;31.17;;;6.10;99.90;;;;;;5018318;28;20025;-87
2023/04/16 06:15:47;;;;;;;59.63;28.17;;;6.10;99.90;;;;;;5034336;28;20113;-87
2023/04/16 06:18:13;;;;;;;62.67;29.52;;;6.10;99.90;;;;;;5017725;28;20021;-87
2023/04/16 06:20:39;;;;;;;67.07;30.42;;;6.10;99.90;;;;;;5043393;28;20487;-87
2023/04/16 06:23:05;;;;;;;63.80;28.02;;;6.10;99.90;;;;;;5030909;28;20439;-86
2023/04/16 06:25:30;;;;;;;57.75;27.58;;;6.10;99.90;;;;;;5034319;28;20055;-87
2023/04/16 06:27:56;;;;;;;58.85;28.50;;;6.10;99.90;;;;;;5017636;28;20108;-87
2023/04/16 06:30:22;;;;;;;59.38;26.85;;;6.20;99.90;;;;;;5033682;28;20036;-88
2023/04/16 06:32:48;;;;;;;56.78;26.65;;;6.10;99.90;;;;;;5017638;28;20032;-87
2023/04/16 06:35:14;;;;;;;54.42;25.73;;;6.20;99.90;;;;;;5034358;28;20025;-88
2023/04/16 06:41:27;;;;;;;50.08;25.10;;;6.20;99.90;;;;;;5033131;28;20086;-87
2023/04/16 06:43:53;;;;;;;51.30;25.15;;;6.20;99.90;;;;;;5016964;28;20077;-88
2023/04/16 06:46:19;;;;;;;60.75;25.73;;;6.20;99.90;;;;;;5015900;28;20103;-87
2023/04/16 06:48:46;;;;;;;55.40;24.98;;;6.10;99.90;;;;;;5022374;28;20394;-87
2023/04/16 06:51:12;;;;;;;61.45;28.75;;;6.10;99.90;;;;;;5006576;28;20084;-86
2023/04/16 06:53:37;;;;;;;52.60;25.35;;;6.10;99.90;;;;;;5035035;28;20021;-87
2023/04/16 06:56:04;;;;;;;54.28;27.85;;;6.10;99.90;;;;;;5028296;28;20026;-88
2023/04/16 06:58:29;;;;;;;58.40;26.40;;;6.10;99.90;;;;;;5030665;28;20033;-87
2023/04/16 07:00:55;;;;;;;49.50;24.23;;;6.10;99.90;;;;;;5014564;28;20029;-88
2023/04/16 07:03:21;;;;;;;72.78;29.10;;;6.20;99.90;;;;;;5014671;28;20045;-87
2023/04/16 07:05:46;;;;;;;62.30;27.10;;;6.20;99.90;;;;;;5016178;28;20029;-87
2023/04/16 07:08:12;;;;;;;53.35;25.48;;;6.20;99.90;;;;;;5023618;28;20030;-87
2023/04/16 07:10:38;;;;;;;48.05;23.95;;;6.20;99.90;;;;;;5012782;28;20022;-87
2023/04/16 07:13:04;;;;;;;53.88;26.80;;;6.10;99.90;;;;;;5021575;28;20065;-87
2023/04/16 07:15:29;;;;;;;55.55;26.15;;;6.20;99.90;;;;;;5041712;28;20038;-88
2023/04/16 07:17:55;;;;;;;61.80;29.88;;;6.10;99.90;;;;;;5012812;28;20036;-87
2023/04/16 07:20:21;;;;;;;55.90;27.45;;;6.10;99.90;;;;;;5039749;28;20037;-87
2023/04/16 07:22:47;;;;;;;64.75;28.75;;;6.10;99.90;;;;;;5004800;28;20403;-87
2023/04/16 07:25:13;;;;;;;61.90;26.85;;;6.10;99.90;;;;;;5035895;28;20026;-88
2023/04/16 07:27:42;;;;;;;60.70;27.40;;;6.10;99.90;;;;;;5028380;28;20460;-88
2023/04/16 07:30:08;;;;;;;63.92;29.58;;;6.10;99.90;;;;;;5020501;28;20442;-87
2023/04/16 07:32:34;;;;;;;63.53;27.55;;;6.10;99.90;;;;;;5027576;28;20032;-87
2023/04/16 07:35:03;;;;;;;60.20;27.55;;;6.10;99.90;;;;;;5013709;28;20025;-87
2023/04/16 07:37:29;;;;;;;63.40;28.25;;;6.20;99.90;;;;;;5030220;28;20058;-88
2023/04/16 07:39:56;;;;;;;61.55;28.85;;;6.10;99.90;;;;;;5025897;28;20029;-87
2023/04/16 07:42:22;;;;;;;66.43;29.83;;;6.10;99.90;;;;;;5041105;28;20030;-87
2023/04/16 07:44:48;;;;;;;67.75;28.35;;;6.10;99.90;;;;;;5039943;28;20033;-87
2023/04/16 07:47:13;;;;;;;61.17;28.58;;;6.10;99.90;;;;;;5033511;28;20120;-87
2023/04/16 07:49:39;;;;;;;64.90;28.65;;;6.20;99.90;;;;;;5021861;28;20038;-86
2023/04/16 07:52:05;;;;;;;54.47;25.92;;;6.20;99.90;;;;;;5014295;28;20036;-87
2023/04/16 07:54:31;;;;;;;65.28;27.20;;;6.20;99.90;;;;;;5029982;28;20033;-87
2023/04/16 07:56:57;;;;;;;58.60;26.98;;;6.30;99.90;;;;;;5016265;28;20021;-87
2023/04/16 07:59:22;;;;;;;56.35;26.13;;;6.30;99.90;;;;;;5020780;28;20254;-86
2023/04/16 08:01:48;;;;;;;50.33;25.30;;;6.30;99.90;;;;;;5011983;28;20034;-87
2023/04/16 08:04:16;;;;;;;52.03;26.30;;;6.30;99.90;;;;;;5023593;28;20532;-86
2023/04/16 08:06:42;;;;;;;51.38;24.85;;;6.30;99.90;;;;;;5029186;28;20029;-86
2023/04/16 08:09:07;;;;;;;55.40;26.40;;;6.30;99.90;;;;;;5027606;28;20026;-87
2023/04/16 08:11:34;;;;;;;56.38;25.27;;;6.20;99.90;;;;;;5025798;28;20155;-87
2023/04/16 08:13:59;;;;;;;55.92;26.73;;;6.20;99.90;;;;;;5015712;28;20025;-86
2023/04/16 08:16:25;;;;;;;55.78;25.85;;;6.20;99.90;;;;;;5027413;28;20060;-85
2023/04/16 08:18:51;;;;;;;58.42;27.98;;;6.20;99.90;;;;;;5012472;28;20033;-87
2023/04/16 08:21:17;;;;;;;55.05;25.90;;;6.10;99.90;;;;;;5032656;28;20033;-87
2023/04/16 08:23:42;;;;;;;58.22;25.75;;;6.20;99.90;;;;;;5017015;28;20049;-87
2023/04/16 08:26:08;;;;;;;57.20;27.77;;;6.20;99.90;;;;;;5024965;28;20033;-87
2023/04/16 08:28:34;;;;;;;50.30;23.27;;;6.20;99.90;;;;;;5025477;28;20049;-86
2023/04/16 08:31:00;;;;;;;49.13;22.73;;;6.30;99.90;;;;;;5041549;28;20063;-87
2023/04/16 08:33:26;;;;;;;39.97;19.90;;;6.30;99.90;;;;;;5036069;28;20036;-86
2023/04/16 08:36:30;;;;;;;37.67;18.65;;;6.30;99.90;;;;;;5015350;28;20591;-86
2023/04/16 08:39:08;;;;;;;40.10;17.80;;;6.30;99.90;;;;;;5015736;28;20044;-87
2023/04/16 08:41:36;;;;;;;34.67;16.27;;;6.30;99.90;;;;;;5051415;28;20091;-87
2023/04/16 08:44:13;;;;;;;33.13;17.67;;;6.30;99.90;;;;;;5052981;28;20028;-87
2023/04/16 08:46:40;;;;;;;32.17;16.40;;;6.40;99.90;;;;;;5018232;28;20117;-87
2023/04/16 08:49:07;;;;;;;27.92;14.63;;;6.40;99.90;;;;;;5040251;28;20075;-87
2023/04/16 08:51:34;;;;;;;32.15;15.25;;;6.40;99.90;;;;;;5019248;28;20354;-88
2023/04/16 08:54:23;;;;;;;28.23;14.18;;;6.40;99.90;;;;;;5018813;28;20026;-87
2023/04/16 08:56:50;;;;;;;24.67;12.10;;;6.40;99.90;;;;;;4996371;28;20385;-87
2023/04/16 08:59:16;;;;;;;23.65;11.43;;;6.30;99.90;;;;;;5038388;28;20382;-87
2023/04/16 09:01:42;;;;;;;24.63;11.38;;;6.30;99.90;;;;;;5035157;28;20025;-87
2023/04/16 09:04:08;;;;;;;23.77;12.77;;;6.40;99.90;;;;;;5019528;28;20033;-87
2023/04/16 09:06:37;;;;;;;23.80;11.10;;;6.30;99.90;;;;;;5035654;28;20041;-87
2023/04/16 09:09:05;;;;;;;23.58;11.05;;;6.30;99.90;;;;;;5034902;28;20127;-87
2023/04/16 09:11:31;;;;;;;19.75;9.88;;;6.30;99.90;;;;;;5035678;28;20404;-87
2023/04/16 09:13:58;;;;;;;22.15;10.40;;;6.30;99.90;;;;;;5037857;28;20404;-86
2023/04/16 09:16:24;;;;;;;24.30;12.05;;;6.30;99.90;;;;;;5035556;28;20036;-87
2023/04/16 09:18:51;;;;;;;27.63;14.23;;;6.30;99.90;;;;;;5018985;28;20036;-87
2023/04/16 09:21:17;;;;;;;22.50;12.05;;;6.30;99.90;;;;;;5018951;28;20022;-87
2023/04/16 09:23:42;;;;;;;25.67;11.90;;;6.30;99.90;;;;;;5018979;28;20031;-87
2023/04/16 09:26:08;;;;;;;21.77;11.55;;;6.30;99.90;;;;;;5033489;28;20120;-87
2023/04/16 09:28:42;;;;;;;22.90;10.30;;;6.30;99.90;;;;;;5019897;28;20049;-87
2023/04/16 09:31:18;;;;;;;26.33;11.48;;;6.30;99.90;;;;;;5038706;28;20025;-87
2023/04/16 09:34:05;;;;;;;25.65;13.00;;;6.30;99.90;;;;;;5036182;28;20026;-88
2023/04/16 09:36:31;;;;;;;23.80;11.90;;;6.30;99.90;;;;;;5020298;28;20022;-87
2023/04/16 09:38:58;;;;;;;22.73;10.13;;;6.30;99.90;;;;;;5007644;28;20108;-87
2023/04/16 09:41:27;;;;;;;22.73;11.68;;;6.30;99.90;;;;;;5032032;28;20034;-88
2023/04/16 09:43:57;;;;;;;21.55;11.30;;;6.40;99.90;;;;;;5017908;28;20034;-87
2023/04/16 09:46:34;;;;;;;24.52;11.32;;;6.40;99.90;;;;;;5027216;28;20473;-88
2023/04/16 09:49:12;;;;;;;22.23;11.63;;;6.50;99.90;;;;;;5027249;28;20040;-88
2023/04/16 09:51:53;;;;;;;20.63;10.57;;;6.40;99.90;;;;;;5017288;28;20030;-87
2023/04/16 09:54:19;;;;;;;19.33;9.85;;;6.50;99.90;;;;;;5028946;28;20029;-87
2023/04/16 09:56:45;;;;;;;26.90;12.55;;;6.50;99.90;;;;;;5042504;28;20075;-88
2023/04/16 09:59:18;;;;;;;19.38;9.85;;;6.50;99.90;;;;;;5021484;28;20113;-87
2023/04/16 10:01:48;;;;;;;21.50;11.07;;;6.60;99.90;;;;;;5026450;28;20029;-87
2023/04/16 10:04:14;;;;;;;19.00;10.65;;;6.60;99.90;;;;;;5026125;28;20038;-87
2023/04/16 10:06:41;;;;;;;21.85;10.45;;;6.60;99.90;;;;;;5033334;28;20033;-87
2023/04/16 10:09:09;;;;;;;21.52;10.75;;;6.60;99.90;;;;;;5023195;28;20362;-86
2023/04/16 10:11:36;;;;;;;21.98;10.65;;;6.60;99.90;;;;;;5044017;28;20034;-87
2023/04/16 10:14:02;;;;;;;21.70;11.60;;;6.60;99.90;;;;;;5013140;28;20025;-86
2023/04/16 10:16:29;;;;;;;23.80;11.43;;;6.60;99.90;;;;;;5036371;28;20439;-87
2023/04/16 10:19:03;;;;;;;21.35;10.50;;;6.70;99.90;;;;;;5018666;28;20109;-88
2023/04/16 10:21:56;;;;;;;28.23;12.40;;;6.70;99.90;;;;;;5032175;28;20029;-87
2023/04/16 10:25:00;;;;;;;24.15;11.63;;;6.70;99.90;;;;;;5032721;28;20480;-87
2023/04/16 10:27:26;;;;;;;20.75;12.40;;;6.60;99.90;;;;;;5031095;28;20441;-87
2023/04/16 10:29:52;;;;;;;26.08;12.82;;;6.60;99.90;;;;;;5017494;28;20048;-86
2023/04/16 10:32:20;;;;;;;24.08;12.57;;;6.60;99.90;;;;;;5033314;28;20116;-87
2023/04/16 10:34:46;;;;;;;23.05;13.35;;;6.70;99.90;;;;;;5042473;28;20116;-86
2023/04/16 10:37:14;;;;;;;29.55;15.05;;;6.60;99.90;;;;;;5038357;28;20033;-86
2023/04/16 10:39:40;;;;;;;26.00;13.35;;;6.60;99.90;;;;;;5031158;28;20487;-86
2023/04/16 10:42:10;;;;;;;29.83;15.65;;;6.60;99.90;;;;;;5017003;28;20029;-86
2023/04/16 10:44:37;;;;;;;27.73;15.00;;;6.50;99.90;;;;;;5017789;28;20064;-87
2023/04/16 10:47:10;;;;;;;26.85;14.10;;;6.50;99.90;;;;;;5034902;28;20455;-85
2023/04/16 10:49:35;;;;;;;31.90;15.85;;;6.50;99.90;;;;;;5017663;28;20037;-87
2023/04/16 10:52:09;;;;;;;26.58;14.35;;;6.50;99.90;;;;;;5018451;28;20041;-86
2023/04/16 10:54:35;;;;;;;26.30;14.50;;;6.60;99.90;;;;;;5018287;28;20044;-87
2023/04/16 10:57:16;;;;;;;30.80;16.25;;;6.60;99.90;;;;;;5038401;28;20005;-86
2023/04/16 10:59:43;;;;;;;29.20;15.90;;;6.70;99.90;;;;;;5035243;28;20021;-87
2023/04/16 11:02:17;;;;;;;32.42;15.77;;;6.70;99.90;;;;;;5016994;28;20037;-86
2023/04/16 11:04:44;;;;;;;32.22;16.42;;;6.80;99.90;;;;;;5046742;28;20036;-86
2023/04/16 11:07:13;;;;;;;31.50;17.00;;;6.80;99.90;;;;;;5037138;28;20034;-87
2023/04/16 11:09:59;;;;;;;40.15;17.15;;;6.80;99.90;;;;;;5032599;28;20061;-86
2023/04/16 11:12:28;;;;;;;33.58;18.30;;;6.80;99.90;;;;;;5016666;28;20428;-86
2023/04/16 11:14:56;;;;;;;34.83;18.95;;;6.90;99.90;;;;;;5029052;28;20024;-86
2023/04/16 11:17:22;;;;;;;34.38;19.17;;;6.80;99.90;;;;;;5019037;28;20025;-87
2023/04/16 11:19:48;;;;;;;38.60;19.00;;;6.80;99.90;;;;;;5033643;28;20112;-86
2023/04/16 11:22:16;;;;;;;37.53;18.27;;;6.80;99.90;;;;;;5016954;28;20036;-86
2023/04/16 11:24:46;;;;;;;36.20;19.65;;;6.70;99.90;;;;;;5033474;28;20432;-86
2023/04/16 11:27:14;;;;;;;36.58;18.73;;;6.80;99.90;;;;;;5016489;28;20560;-86
2023/04/16 11:29:40;;;;;;;37.53;20.13;;;6.80;99.90;;;;;;5032901;28;20041;-86
2023/04/16 11:32:06;;;;;;;37.88;20.15;;;6.80;99.90;;;;;;5016801;28;20034;-86
2023/04/16 11:34:32;;;;;;;41.25;21.20;;;6.80;99.90;;;;;;5032520;28;20025;-86
2023/04/16 11:36:58;;;;;;;37.15;19.85;;;6.80;99.90;;;;;;5034111;28;20033;-86
2023/04/16 11:39:24;;;;;;;38.47;20.02;;;6.80;99.90;;;;;;5016501;28;20033;-87
2023/04/16 11:41:51;;;;;;;40.35;21.45;;;6.90;99.90;;;;;;5016126;28;20095;-86
2023/04/16 11:44:22;;;;;;;42.47;20.92;;;7.00;99.90;;;;;;5032809;28;20037;-87
2023/04/16 11:46:48;;;;;;;;;;;7.00;99.90;;;;;;5037935;28;20026;-86
2023/04/16 11:49:16;;;;;;;43.28;21.10;;;7.00;99.90;;;;;;5032902;28;19920;-87
2023/04/16 11:51:46;;;;;;;43.83;20.30;;;7.00;99.90;;;;;;5016151;28;20037;-87
2023/04/16 11:54:23;;;;;;;38.72;21.77;;;7.00;99.90;;;;;;5033005;28;20025;-87
2023/04/16 11:56:51;;;;;;;41.78;21.83;;;6.90;99.90;;;;;;5015771;28;20033;-86
2023/04/16 11:59:22;;;;;;;45.08;22.48;;;6.90;99.90;;;;;;5045469;28;20064;-86
2023/04/16 12:01:50;;;;;;;42.90;22.55;;;6.90;99.90;;;;;;5031809;28;20124;-86
2023/04/16 12:04:19;;;;;;;43.28;22.67;;;7.00;99.90;;;;;;5016094;28;20040;-86
2023/04/16 12:07:11;;;;;;;44.22;23.85;;;7.00;99.90;;;;;;5032539;28;20027;-86
2023/04/16 12:09:41;;;;;;;46.38;23.45;;;7.00;99.90;;;;;;5019233;28;20116;-87
2023/04/16 12:12:29;;;;;;;46.35;23.80;;;7.00;99.90;;;;;;5037943;28;20022;-85
2023/04/16 12:14:56;;;;;;;47.22;23.67;;;7.20;99.90;;;;;;5035335;28;20080;-86
2023/04/16 12:17:22;;;;;;;48.15;23.75;;;7.20;99.90;;;;;;5019597;28;20028;-86
2023/04/16 12:19:59;;;;;;;49.33;24.52;;;7.20;99.90;;;;;;5036604;28;20493;-86
2023/04/16 12:22:26;;;;;;;46.45;24.45;;;7.30;99.90;;;;;;5020126;28;20033;-86
2023/04/16 12:25:03;;;;;;;45.35;23.45;;;7.40;99.90;;;;;;5012212;28;20120;-87
2023/04/16 12:27:50;;;;;;;46.45;23.90;;;7.20;99.90;;;;;;5019493;28;20030;-87
2023/04/16 12:30:18;;;;;;;52.45;24.83;;;7.20;99.90;;;;;;5045840;28;20041;-87
2023/04/16 12:32:46;;;;;;;46.30;24.20;;;7.30;99.90;;;;;;5024557;28;20067;-87
2023/04/16 12:35:12;;;;;;;50.42;25.52;;;7.30;99.90;;;;;;5014810;28;20022;-87
2023/04/16 12:37:39;;;;;;;50.15;25.33;;;7.20;99.90;;;;;;5039191;28;20461;-87
2023/04/16 12:40:06;;;;;;;43.65;24.20;;;7.20;99.90;;;;;;5007140;28;20068;-86
2023/04/16 12:42:35;;;;;;;50.92;26.38;;;7.20;99.90;;;;;;5030240;28;20076;-87
2023/04/16 12:45:03;;;;;;;57.20;28.05;;;7.20;99.90;;;;;;5022993;28;20405;-87